Time;durP1;ratioP1;P1;durP2;ratioP2;P2;SDS_P1;SDS_P2;PMS_P1;PMS_P2;Temp;Humidity;BMP_temperature;BMP_pressure;BME280_temperature;BME280_humidity;BME280_pressure;Samples;Min_cycle;Max_cycle;Signal;HPM_P1;HPM_P2
2021/04/13 00:01:26;;;;;;;0.40;0.40;;;11.50;57.90;;;;;;4941159;28;20042;-92
2021/04/13 00:04:12;;;;;;;0.43;0.43;;;11.40;57.50;;;;;;4925638;28;20034;-92
2021/04/13 00:06:50;;;;;;;1.17;1.15;;;11.40;57.70;;;;;;4925258;28;20038;-93
2021/04/13 00:09:26;;;;;;;0.52;0.52;;;11.30;57.90;;;;;;4921108;28;20109;-90
2021/04/13 00:11:59;;;;;;;0.60;0.60;;;11.20;58.00;;;;;;4904208;28;20158;-92
2021/04/13 00:14:29;;;;;;;0.75;0.75;;;11.20;58.10;;;;;;4918827;28;20038;-92
2021/04/13 00:17:02;;;;;;;0.60;0.60;;;11.20;58.10;;;;;;4921195;28;20042;-91
2021/04/13 00:19:43;;;;;;;0.50;0.50;;;11.10;58.00;;;;;;4907076;28;20046;-91
2021/04/13 00:22:09;;;;;;;0.60;0.60;;;11.10;58.10;;;;;;4929613;28;20034;-91
2021/04/13 00:24:36;;;;;;;0.40;0.40;;;11.10;58.10;;;;;;4938324;28;20042;-89
2021/04/13 00:27:03;;;;;;;0.60;0.60;;;11.00;58.10;;;;;;4935075;28;20042;-91
2021/04/13 00:29:30;;;;;;;;;;;11.00;58.10;;;;;;4944888;28;20037;-92
2021/04/13 00:32:00;;;;;;;0.55;0.55;;;11.00;58.20;;;;;;4921925;28;19957;-91
2021/04/13 00:34:50;;;;;;;0.30;0.30;;;11.00;57.90;;;;;;4937217;28;20124;-90
2021/04/13 00:37:24;;;;;;;0.70;0.70;;;11.00;57.90;;;;;;4927369;28;20046;-89
2021/04/13 00:39:52;;;;;;;0.82;0.82;;;10.90;57.80;;;;;;4960283;28;20052;-91
2021/04/13 00:42:28;;;;;;;0.57;0.57;;;10.90;57.90;;;;;;4935646;28;20600;-90
2021/04/13 00:45:02;;;;;;;0.77;0.77;;;10.90;58.00;;;;;;4933206;28;20058;-89
2021/04/13 00:47:36;;;;;;;0.90;0.88;;;10.80;58.10;;;;;;4938549;28;20268;-92
2021/04/13 00:50:28;;;;;;;1.08;0.95;;;10.70;58.10;;;;;;4945722;28;20062;-91
2021/04/13 00:52:56;;;;;;;0.50;0.50;;;10.70;58.20;;;;;;4936076;28;20097;-92
2021/04/13 00:55:30;;;;;;;1.48;1.38;;;10.70;58.30;;;;;;4916576;28;20045;-92
2021/04/13 00:58:09;;;;;;;0.47;0.47;;;10.70;58.20;;;;;;4902439;28;20583;-92
2021/04/13 01:00:47;;;;;;;0.40;0.40;;;10.70;58.30;;;;;;4932778;28;20056;-92
2021/04/13 01:03:14;;;;;;;0.70;0.70;;;10.70;58.30;;;;;;4904573;28;20049;-92
2021/04/13 01:05:45;;;;;;;0.40;0.40;;;10.70;58.20;;;;;;4931254;28;20034;-91
2021/04/13 01:08:30;;;;;;;0.57;0.57;;;10.70;58.10;;;;;;4915967;28;20060;-92
2021/04/13 01:11:03;;;;;;;0.60;0.60;;;10.70;59.20;;;;;;4931211;28;20034;-93
2021/04/13 01:14:01;;;;;;;0.50;0.50;;;10.60;58.00;;;;;;4899694;28;20053;-92
2021/04/13 01:16:42;;;;;;;0.60;0.60;;;10.60;58.00;;;;;;4930823;28;20042;-92
2021/04/13 01:19:31;;;;;;;0.35;0.35;;;10.60;58.00;;;;;;4916441;28;20042;-93
2021/04/13 01:22:11;;;;;;;0.50;0.50;;;10.60;58.00;;;;;;4912609;28;20061;-91
2021/04/13 01:24:45;;;;;;;0.30;0.30;;;10.70;58.00;;;;;;4932700;28;20461;-91
2021/04/13 01:27:12;;;;;;;0.40;0.40;;;10.60;58.00;;;;;;4917688;28;20038;-92
2021/04/13 01:29:38;;;;;;;0.47;0.47;;;10.60;58.00;;;;;;4901652;28;20046;-92
2021/04/13 01:32:06;;;;;;;0.55;0.55;;;10.60;58.10;;;;;;4936338;28;20465;-92
2021/04/13 01:34:42;;;;;;;0.68;0.68;;;10.60;58.10;;;;;;4923181;28;20050;-91
2021/04/13 01:37:24;;;;;;;0.98;0.98;;;10.60;58.20;;;;;;4942512;28;20038;-91
2021/04/13 01:40:42;;;;;;;0.77;0.77;;;10.60;58.10;;;;;;4941379;28;20049;-91
2021/04/13 01:42:37;;;;;;;0.45;0.45;;;10.60;58.10;;;;;;4923201;28;20660;-90
2021/04/13 01:45:20;;;;;;;0.50;0.50;;;10.60;58.10;;;;;;4927762;28;20046;-91
2021/04/13 01:47:47;;;;;;;1.02;1.02;;;10.60;58.20;;;;;;4925092;28;20045;-89
2021/04/13 01:50:32;;;;;;;0.60;0.60;;;10.60;58.20;;;;;;4943399;28;20450;-90
2021/04/13 01:53:18;;;;;;;0.35;0.35;;;10.60;58.20;;;;;;4929024;28;20041;-91
2021/04/13 01:55:51;;;;;;;0.73;0.73;;;10.60;58.30;;;;;;4948602;28;20046;-91
2021/04/13 01:58:37;;;;;;;0.40;0.40;;;10.60;58.30;;;;;;4920247;28;20041;-94
2021/04/13 02:01:31;;;;;;;0.73;0.73;;;10.50;58.40;;;;;;5120164;23;20128;-94
2021/04/13 02:04:18;;;;;;;0.60;0.60;;;10.50;58.40;;;;;;4939032;28;20030;-95
2021/04/13 02:06:57;;;;;;;0.50;0.50;;;10.50;58.40;;;;;;4933453;28;20034;-96
2021/04/13 02:09:41;;;;;;;0.65;0.65;;;10.50;58.40;;;;;;4942097;28;20473;-94
2021/04/13 02:12:16;;;;;;;0.50;0.50;;;10.60;58.50;;;;;;4938693;28;20545;-93
2021/04/13 02:15:33;;;;;;;0.43;0.43;;;10.60;58.60;;;;;;4920202;28;20528;-93
2021/04/13 02:18:03;;;;;;;0.57;0.57;;;10.60;59.70;;;;;;4934566;28;20038;-94
2021/04/13 02:20:36;;;;;;;0.40;0.40;;;10.60;58.50;;;;;;4904529;28;20440;-92
2021/04/13 02:23:04;;;;;;;0.50;0.50;;;10.60;58.40;;;;;;4919491;28;20038;-93
2021/04/13 02:25:34;;;;;;;0.40;0.40;;;10.70;58.50;;;;;;4936622;28;20034;-91
2021/04/13 02:28:01;;;;;;;1.65;1.55;;;10.70;58.50;;;;;;4936187;28;20057;-94
2021/04/13 02:30:35;;;;;;;0.50;0.50;;;10.80;58.50;;;;;;4922023;28;20034;-91
2021/04/13 02:33:32;;;;;;;1.02;1.02;;;10.80;58.50;;;;;;4920907;28;20595;-93
2021/04/13 02:36:15;;;;;;;0.52;0.52;;;10.90;58.50;;;;;;4916880;28;20042;-89
2021/04/13 02:38:47;;;;;;;0.50;0.50;;;10.90;58.50;;;;;;4920916;28;20038;-92
2021/04/13 02:41:33;;;;;;;0.43;0.43;;;10.90;58.40;;;;;;4935674;28;20042;-92
2021/04/13 02:44:06;;;;;;;0.40;0.40;;;10.90;58.40;;;;;;4901783;28;20042;-91
2021/04/13 02:46:32;;;;;;;1.23;0.85;;;11.00;58.50;;;;;;4904396;28;20124;-92
2021/04/13 02:49:14;;;;;;;0.45;0.45;;;11.10;58.50;;;;;;4915745;28;20076;-91
2021/04/13 02:51:54;;;;;;;0.50;0.50;;;11.10;58.50;;;;;;4904245;28;20038;-93
2021/04/13 02:54:49;;;;;;;0.50;0.50;;;11.10;58.40;;;;;;4952905;28;20038;-94
2021/04/13 02:57:26;;;;;;;0.40;0.40;;;11.20;58.50;;;;;;4925489;28;20121;-94
2021/04/13 03:00:04;;;;;;;0.40;0.40;;;11.30;58.50;;;;;;4914116;28;20042;-94
2021/04/13 03:02:52;;;;;;;0.63;0.63;;;11.40;58.60;;;;;;4912804;28;20077;-95
2021/04/13 03:05:24;;;;;;;0.40;0.40;;;11.60;58.40;;;;;;4909753;28;20037;-95
2021/04/13 03:07:51;;;;;;;0.45;0.45;;;11.70;58.40;;;;;;4926338;28;20048;-91
2021/04/13 03:10:37;;;;;;;0.65;0.65;;;11.80;58.10;;;;;;4942331;28;20058;-96
2021/04/13 03:15:41;;;;;;;0.50;0.50;;;11.90;57.90;;;;;;5311741;23;20057;-94
2021/04/13 03:18:16;;;;;;;0.90;0.90;;;11.90;57.80;;;;;;4902875;28;20050;-91
2021/04/13 03:20:46;;;;;;;0.50;0.50;;;12.00;57.80;;;;;;4940612;28;20060;-94
2021/04/13 03:23:13;;;;;;;0.60;0.60;;;11.90;57.80;;;;;;4921800;28;20050;-92
2021/04/13 03:25:52;;;;;;;0.40;0.40;;;11.90;57.80;;;;;;4902536;28;20442;-93
2021/04/13 03:28:23;;;;;;;0.40;0.40;;;12.00;57.90;;;;;;4905086;28;20042;-94
2021/04/13 03:30:50;;;;;;;0.45;0.45;;;12.00;59.10;;;;;;4920116;28;20529;-96
2021/04/13 03:33:28;;;;;;;0.43;0.43;;;12.10;57.90;;;;;;4919820;28;20065;-96
2021/04/13 03:36:22;;;;;;;0.45;0.45;;;12.20;57.90;;;;;;4923928;28;20042;-91
2021/04/13 03:39:02;;;;;;;0.70;0.70;;;12.20;57.80;;;;;;4904408;28;20046;-95
2021/04/13 03:41:28;;;;;;;0.63;0.63;;;12.30;57.80;;;;;;4898816;28;20137;-93
2021/04/13 03:44:01;;;;;;;1.38;0.88;;;12.40;57.90;;;;;;4936346;28;20038;-94
2021/04/13 03:46:32;;;;;;;0.40;0.40;;;12.50;59.30;;;;;;4920641;28;20034;-94
2021/04/13 03:51:56;;;;;;;0.25;0.25;;;12.80;58.10;;;;;;4975672;23;20045;-92
2021/04/13 03:54:32;;;;;;;0.50;0.50;;;13.10;59.00;;;;;;4938891;28;20050;-94
2021/04/13 03:57:00;;;;;;;0.35;0.30;;;13.80;60.00;;;;;;4920279;28;20105;-92
2021/04/13 03:59:35;;;;;;;0.50;0.50;;;14.50;60.60;;;;;;4889492;28;20120;-92
2021/04/13 04:02:05;;;;;;;0.60;0.60;;;15.20;60.60;;;;;;4913348;28;20045;-90
2021/04/13 04:04:42;;;;;;;0.80;0.80;;;16.10;60.60;;;;;;4928313;28;20049;-92
2021/04/13 04:07:37;;;;;;;0.70;0.70;;;17.00;60.00;;;;;;4936387;28;20108;-90
2021/04/13 04:10:42;;;;;;;0.57;0.57;;;17.90;59.00;;;;;;4915943;28;20097;-94
2021/04/13 04:13:14;;;;;;;0.70;0.70;;;19.00;57.20;;;;;;4934841;28;20045;-92
2021/04/13 04:15:49;;;;;;;0.47;0.47;;;19.70;56.10;;;;;;4919321;28;20081;-92
2021/04/13 04:18:29;;;;;;;0.85;0.85;;;20.40;55.10;;;;;;4938406;28;20048;-96
2021/04/13 04:20:58;;;;;;;0.82;0.82;;;21.20;53.70;;;;;;4921678;28;20116;-92
2021/04/13 04:23:30;;;;;;;1.65;0.40;;;22.00;52.60;;;;;;4909835;28;20129;-95
2021/04/13 04:26:00;;;;;;;2.63;1.10;;;22.90;51.00;;;;;;4920220;28;20045;-93
2021/04/13 04:28:34;;;;;;;0.88;0.88;;;23.50;49.20;;;;;;4903371;28;20521;-92
2021/04/13 04:31:33;;;;;;;1.13;1.08;;;23.80;47.90;;;;;;4935955;28;20049;-92
2021/04/13 04:34:21;;;;;;;0.70;0.70;;;24.00;46.30;;;;;;4922036;28;20041;-92
2021/04/13 04:36:50;;;;;;;1.05;1.05;;;24.00;45.10;;;;;;4933323;28;20126;-93
2021/04/13 04:39:32;;;;;;;0.40;0.40;;;24.30;44.90;;;;;;4933753;28;20544;-95
2021/04/13 04:42:29;;;;;;;1.08;0.90;;;25.00;44.50;;;;;;4902671;28;20476;-92
2021/04/13 04:45:16;;;;;;;1.00;0.68;;;25.80;42.70;;;;;;4912198;28;20034;-91
2021/04/13 04:47:44;;;;;;;1.33;1.33;;;26.60;41.00;;;;;;4917167;28;20041;-91
2021/04/13 04:50:15;;;;;;;0.47;0.47;;;27.00;39.60;;;;;;4901614;28;20034;-91
2021/04/13 04:52:41;;;;;;;0.68;0.68;;;27.40;39.10;;;;;;4933960;28;20088;-90
2021/04/13 04:55:08;;;;;;;2.33;2.13;;;27.80;38.10;;;;;;4921110;28;20053;-90
2021/04/13 04:57:34;;;;;;;1.10;1.00;;;28.20;36.60;;;;;;4902663;28;20045;-91
2021/04/13 05:00:01;;;;;;;1.20;0.98;;;28.40;35.60;;;;;;4965002;28;20034;-91
2021/04/13 05:02:27;;;;;;;2.25;1.45;;;28.50;35.10;;;;;;4930648;28;20670;-93
2021/04/13 05:04:54;;;;;;;1.15;1.05;;;28.60;34.60;;;;;;4919599;28;20058;-92
2021/04/13 05:07:20;;;;;;;;;;;28.80;34.10;;;;;;4940434;28;20521;-94
2021/04/13 05:09:46;;;;;;;2.80;2.55;;;28.80;33.40;;;;;;4922255;28;19926;-93
2021/04/13 05:12:13;;;;;;;0.95;0.95;;;28.90;32.50;;;;;;4919482;28;20033;-91
2021/04/13 05:14:39;;;;;;;0.60;0.60;;;29.10;32.10;;;;;;4918720;28;20034;-93
2021/04/13 05:17:05;;;;;;;;;;;29.60;32.10;;;;;;4950204;28;20034;-91
2021/04/13 05:19:31;;;;;;;1.02;0.95;;;30.20;31.20;;;;;;4917415;28;19941;-92
2021/04/13 05:21:58;;;;;;;0.75;0.75;;;31.20;30.00;;;;;;4917307;28;20117;-92
2021/04/13 05:24:24;;;;;;;0.93;0.93;;;32.10;28.90;;;;;;4934158;28;20068;-90
2021/04/13 05:26:50;;;;;;;1.15;0.85;;;32.90;27.90;;;;;;4903464;28;20069;-91
2021/04/13 05:29:17;;;;;;;1.95;1.27;;;33.80;28.00;;;;;;4934517;28;20042;-91
2021/04/13 05:31:43;;;;;;;2.50;1.27;;;34.50;25.80;;;;;;4933788;28;20096;-94
2021/04/13 05:34:10;;;;;;;0.60;0.60;;;35.20;25.20;;;;;;4936548;28;20057;-95
2021/04/13 05:36:42;;;;;;;0.57;0.57;;;35.80;24.40;;;;;;4940056;28;20070;-91
2021/04/13 05:39:12;;;;;;;1.33;1.23;;;36.30;23.60;;;;;;4937681;28;20050;-90
2021/04/13 05:41:38;;;;;;;0.40;0.40;;;36.80;23.20;;;;;;4925658;28;20046;-91
2021/04/13 05:44:05;;;;;;;1.58;1.48;;;37.20;22.60;;;;;;4936486;28;20049;-90
2021/04/13 05:46:32;;;;;;;1.75;0.35;;;37.60;22.30;;;;;;4904595;28;20034;-90
2021/04/13 05:48:59;;;;;;;2.00;1.05;;;38.10;21.80;;;;;;4930726;28;20424;-91
2021/04/13 05:51:26;;;;;;;1.30;1.25;;;38.60;20.70;;;;;;4941859;28;20104;-92
2021/04/13 05:53:52;;;;;;;1.27;1.05;;;39.00;20.20;;;;;;4967762;28;20073;-91
2021/04/13 05:56:28;;;;;;;0.70;0.70;;;39.40;19.50;;;;;;4950572;28;20045;-92
2021/04/13 05:58:55;;;;;;;1.08;0.80;;;40.00;19.10;;;;;;4935522;28;20026;-91
2021/04/13 06:01:25;;;;;;;0.50;0.50;;;40.50;18.40;;;;;;4941844;28;20038;-93
2021/04/13 06:03:51;;;;;;;1.45;0.73;;;41.00;17.70;;;;;;4952104;28;20049;-93
2021/04/13 06:06:18;;;;;;;0.43;0.40;;;40.80;13.50;;;;;;4919907;28;20042;-90
2021/04/13 06:08:45;;;;;;;0.20;0.20;;;40.40;12.70;;;;;;4933701;28;20057;-93
2021/04/13 06:11:19;;;;;;;0.75;0.35;;;39.80;11.20;;;;;;4920750;28;20106;-93
2021/04/13 06:13:47;;;;;;;0.20;0.20;;;38.90;11.80;;;;;;4904214;28;20065;-92
2021/04/13 06:16:15;;;;;;;0.00;0.00;;;38.60;12.60;;;;;;4918637;28;20030;-94
2021/04/13 06:18:42;;;;;;;0.30;0.30;;;38.80;12.50;;;;;;4918903;28;20042;-93
2021/04/13 06:21:08;;;;;;;0.20;0.17;;;39.10;11.50;;;;;;4904122;28;20397;-94
2021/04/13 06:23:35;;;;;;;0.00;0.00;;;39.20;11.00;;;;;;4919437;28;20034;-95
2021/04/13 06:26:02;;;;;;;0.10;0.10;;;39.50;11.40;;;;;;4933792;28;20164;-92
2021/04/13 06:28:28;;;;;;;0.10;0.10;;;40.10;11.40;;;;;;4918508;28;20116;-95
2021/04/13 06:30:55;;;;;;;0.52;0.52;;;40.20;9.60;;;;;;4951070;28;20563;-94
2021/04/13 06:33:22;;;;;;;0.00;0.00;;;40.20;9.70;;;;;;4933892;28;20104;-95
2021/04/13 06:35:48;;;;;;;0.95;0.22;;;40.20;9.20;;;;;;4950713;28;20529;-95
2021/04/13 06:38:20;;;;;;;0.10;0.10;;;39.90;9.10;;;;;;4936778;28;20042;-95
2021/04/13 06:40:58;;;;;;;0.00;0.00;;;39.90;9.40;;;;;;4958185;28;20062;-96
2021/04/13 06:43:52;;;;;;;0.10;0.10;;;40.20;8.70;;;;;;4959070;28;20505;-94
2021/04/13 06:46:40;;;;;;;0.20;0.20;;;40.10;9.00;;;;;;4958536;28;20056;-96
2021/04/13 06:49:43;;;;;;;0.00;0.00;;;40.40;9.10;;;;;;4957616;28;20048;-93
2021/04/13 06:52:55;;;;;;;0.30;0.30;;;40.70;10.10;;;;;;4929672;28;20105;-92
2021/04/13 06:56:00;;;;;;;0.45;0.45;;;40.50;8.10;;;;;;4926153;28;20035;-90
2021/04/13 06:58:50;;;;;;;0.00;0.00;;;40.00;8.10;;;;;;4944979;28;20038;-94
2021/04/13 07:01:39;;;;;;;0.10;0.10;;;40.00;8.90;;;;;;4961491;23;20034;-95
2021/04/13 07:04:13;;;;;;;0.10;0.10;;;40.70;8.60;;;;;;5132419;23;20046;-94
2021/04/13 07:07:43;;;;;;;0.10;0.10;;;41.20;7.90;;;;;;4922166;28;20121;-96
2021/04/13 07:10:48;;;;;;;0.65;0.40;;;41.90;8.10;;;;;;4949972;28;20264;-96
2021/04/13 07:16:22;;;;;;;0.47;0.47;;;43.50;7.70;;;;;;5407570;23;20054;-93
2021/04/13 07:32:04;;;;;;;0.47;0.45;;;44.00;5.30;;;;;;4844187;23;20137;-93
2021/04/13 07:34:30;;;;;;;0.10;0.10;;;43.00;5.30;;;;;;4939414;28;20042;-93
2021/04/13 07:37:34;;;;;;;0.10;0.10;;;42.30;5.80;;;;;;4904330;28;20056;-93
2021/04/13 07:40:10;;;;;;;;;;;42.20;6.40;;;;;;4911149;28;20026;-96
2021/04/13 07:43:15;;;;;;;0.10;0.10;;;42.10;5.90;;;;;;4906071;28;19938;-96
2021/04/13 07:46:33;;;;;;;0.03;0.03;;;41.80;5.70;;;;;;4922454;28;20034;-95
2021/04/13 07:49:15;;;;;;;0.30;0.30;;;41.20;5.70;;;;;;4905434;28;20046;-95
2021/04/13 07:51:46;;;;;;;0.32;0.32;;;40.70;5.90;;;;;;4901939;28;20053;-92
2021/04/13 07:54:53;;;;;;;0.50;0.50;;;40.60;6.20;;;;;;4936497;28;20038;-95
2021/04/13 07:57:37;;;;;;;0.40;0.40;;;40.50;6.00;;;;;;4930056;28;20034;-95
2021/04/13 08:00:40;;;;;;;0.57;0.57;;;40.20;6.20;;;;;;4929520;28;20045;-92
2021/04/13 08:03:24;;;;;;;0.20;0.20;;;39.90;6.00;;;;;;4911086;29;20193;-95
2021/04/13 08:05:58;;;;;;;0.08;0.08;;;39.30;6.30;;;;;;4914899;28;20045;-94
2021/04/13 08:08:30;;;;;;;0.80;0.32;;;39.20;6.70;;;;;;4899860;28;20047;-94
2021/04/13 08:11:18;;;;;;;0.20;0.20;;;39.60;6.30;;;;;;4922952;28;20034;-95
2021/04/13 08:13:50;;;;;;;0.15;0.15;;;39.90;6.30;;;;;;4906101;28;20117;-95
2021/04/13 08:16:38;;;;;;;0.85;0.85;;;39.90;6.00;;;;;;4921591;28;20073;-90
2021/04/13 08:19:32;;;;;;;0.10;0.10;;;39.80;5.80;;;;;;4908926;28;20062;-91
2021/04/13 08:22:11;;;;;;;;;;;39.80;6.00;;;;;;4903220;29;20042;-92
2021/04/13 08:24:46;;;;;;;0.20;0.20;;;40.00;6.00;;;;;;4947860;28;19933;-93
2021/04/13 08:27:23;;;;;;;0.38;0.38;;;40.10;6.10;;;;;;4907260;29;20065;-91
2021/04/13 08:30:26;;;;;;;0.85;0.55;;;40.20;5.70;;;;;;4912648;29;20039;-91
2021/04/13 08:33:26;;;;;;;0.40;0.40;;;40.00;6.10;;;;;;4938912;28;20104;-93
2021/04/13 08:36:32;;;;;;;0.10;0.10;;;40.20;6.30;;;;;;4941596;28;20105;-92
2021/04/13 08:39:09;;;;;;;0.30;0.30;;;40.70;5.90;;;;;;4943325;28;20038;-96
2021/04/13 08:42:04;;;;;;;0.20;0.20;;;41.10;5.90;;;;;;4950231;28;20046;-94
2021/04/13 08:44:48;;;;;;;0.85;0.75;;;41.20;5.30;;;;;;4928932;28;20529;-96
2021/04/13 08:47:23;;;;;;;0.20;0.20;;;40.90;5.70;;;;;;4939547;28;20116;-94
2021/04/13 08:49:56;;;;;;;0.32;0.32;;;41.30;5.80;;;;;;4942569;28;20579;-93
2021/04/13 08:52:42;;;;;;;0.65;0.65;;;41.70;5.70;;;;;;4929096;28;20049;-92
2021/04/13 08:55:17;;;;;;;0.45;0.45;;;42.00;5.10;;;;;;4939991;28;20045;-95
2021/04/13 08:58:14;;;;;;;0.47;0.47;;;42.30;5.10;;;;;;4943126;28;20109;-92
2021/04/13 09:00:49;;;;;;;1.20;0.52;;;42.40;5.20;;;;;;4914080;28;20042;-92
2021/04/13 09:03:18;;;;;;;0.30;0.30;;;42.60;4.90;;;;;;4923312;28;20101;-91
2021/04/13 09:05:47;;;;;;;0.28;0.28;;;42.60;4.90;;;;;;4922806;28;20030;-93
2021/04/13 09:08:59;;;;;;;0.60;0.55;;;42.30;4.90;;;;;;4939681;28;20038;-93
2021/04/13 09:12:08;;;;;;;0.60;0.60;;;42.30;4.50;;;;;;4937277;28;20030;-93
2021/04/13 09:14:59;;;;;;;0.10;0.10;;;42.00;4.90;;;;;;4931044;28;20104;-93
2021/04/13 09:17:51;;;;;;;0.13;0.13;;;41.90;4.80;;;;;;4926959;28;20038;-96
2021/04/13 09:20:43;;;;;;;0.10;0.10;;;42.10;5.00;;;;;;4970897;28;20034;-94
2021/04/13 09:23:36;;;;;;;0.20;0.20;;;42.70;5.00;;;;;;4939176;28;20046;-94
2021/04/13 09:26:28;;;;;;;0.40;0.40;;;42.90;4.00;;;;;;4928666;28;20065;-93
2021/04/13 09:28:57;;;;;;;0.63;0.63;;;42.20;4.20;;;;;;4951246;28;20042;-95
2021/04/13 09:31:51;;;;;;;0.30;0.30;;;41.50;4.00;;;;;;4952000;28;20049;-93
2021/04/13 09:34:21;;;;;;;2.10;1.17;;;40.70;4.40;;;;;;4937500;28;20057;-92
2021/04/13 09:37:17;;;;;;;0.90;0.90;;;39.90;4.80;;;;;;4969051;28;20041;-93
2021/04/13 09:40:45;;;;;;;0.22;0.22;;;39.60;5.40;;;;;;4935202;28;20116;-92
2021/04/13 09:43:32;;;;;;;0.10;0.10;;;39.40;5.40;;;;;;4872576;29;20499;-93
2021/04/13 09:46:26;;;;;;;0.73;0.73;;;39.90;5.80;;;;;;4846270;29;20063;-94
2021/04/13 09:49:22;;;;;;;0.40;0.40;;;40.20;5.30;;;;;;4910012;28;20038;-95
2021/04/13 09:52:18;;;;;;;0.57;0.30;;;40.50;5.70;;;;;;4929515;28;20042;-94
2021/04/13 09:54:49;;;;;;;0.55;0.55;;;40.80;5.20;;;;;;4942469;28;20129;-94
2021/04/13 09:58:04;;;;;;;0.10;0.10;;;40.40;5.00;;;;;;4922990;28;20077;-95
2021/04/13 10:00:51;;;;;;;0.00;0.00;;;39.60;5.40;;;;;;4940937;28;20056;-91
2021/04/13 10:03:40;;;;;;;0.17;0.17;;;39.10;6.10;;;;;;4926952;28;20042;-92
2021/04/13 10:06:07;;;;;;;0.38;0.38;;;38.80;5.90;;;;;;4953929;28;20038;-92
2021/04/13 10:08:36;;;;;;;0.25;0.25;;;38.40;6.10;;;;;;4921211;28;20128;-92
2021/04/13 10:11:11;;;;;;;0.22;0.20;;;38.00;6.40;;;;;;4928650;28;20042;-93
2021/04/13 10:14:05;;;;;;;0.13;0.13;;;37.50;6.70;;;;;;4952341;28;20038;-91
2021/04/13 10:16:44;;;;;;;0.10;0.10;;;36.80;6.80;;;;;;4951108;28;20042;-91
2021/04/13 10:19:53;;;;;;;0.80;0.45;;;35.70;7.60;;;;;;4948772;28;20038;-92
2021/04/13 10:22:41;;;;;;;0.52;0.38;;;34.80;8.00;;;;;;4954859;28;20041;-89
2021/04/13 10:25:31;;;;;;;0.10;0.10;;;34.10;8.30;;;;;;4934726;28;20120;-91
2021/04/13 10:28:35;;;;;;;0.45;0.45;;;33.30;8.90;;;;;;4909390;28;20058;-95
2021/04/13 10:31:43;;;;;;;0.32;0.32;;;32.80;9.20;;;;;;4940644;28;20046;-95
2021/04/13 10:34:58;;;;;;;0.38;0.38;;;32.10;9.30;;;;;;4946131;28;20046;-95
2021/04/13 10:40:31;;;;;;;0.35;0.35;;;30.90;9.80;;;;;;5065093;23;20034;-93
2021/04/13 10:43:54;;;;;;;0.10;0.10;;;30.40;10.20;;;;;;4970188;28;20023;-93
2021/04/13 10:46:37;;;;;;;0.30;0.30;;;30.00;10.50;;;;;;4973732;28;20141;-95
2021/04/13 10:49:35;;;;;;;0.20;0.20;;;29.70;10.60;;;;;;4947494;28;20053;-95
2021/04/13 10:52:38;;;;;;;0.10;0.10;;;29.40;10.80;;;;;;5133479;23;20273;31
2021/04/13 11:24:50;;;;;;;0.32;0.28;;;28.00;12.10;;;;;;5263230;23;21084;-94
2021/04/13 11:28:02;;;;;;;0.00;0.00;;;28.00;12.30;;;;;;4972769;28;20564;-92
2021/04/13 11:31:25;;;;;;;1.95;0.30;;;28.00;12.40;;;;;;4952595;28;20146;-93
2021/04/13 11:34:55;;;;;;;0.00;0.00;;;27.90;12.30;;;;;;4938880;28;20052;-91
2021/04/13 11:37:40;;;;;;;0.05;0.05;;;27.90;12.50;;;;;;4968847;28;20109;-94
2021/04/13 11:40:40;;;;;;;0.50;0.50;;;27.90;12.30;;;;;;4951736;28;20033;-93
2021/04/13 11:43:14;;;;;;;0.10;0.10;;;27.90;12.30;;;;;;4949228;28;20046;-93
2021/04/13 11:46:25;;;;;;;0.03;0.03;;;27.90;11.80;;;;;;4966804;23;20129;-96
2021/04/13 11:48:58;;;;;;;0.10;0.10;;;27.80;11.50;;;;;;4964034;28;20130;-92
2021/04/13 11:52:05;;;;;;;0.13;0.13;;;27.80;11.70;;;;;;4968187;28;20109;-92
2021/04/13 11:54:37;;;;;;;0.10;0.10;;;27.80;11.70;;;;;;4908193;28;20113;-91
2021/04/13 11:57:19;;;;;;;0.22;0.22;;;27.80;11.70;;;;;;4945666;28;20038;-90
2021/04/13 12:00:11;;;;;;;0.43;0.43;;;27.70;11.70;;;;;;4925127;29;20035;-90
2021/04/13 12:02:43;;;;;;;6.32;1.65;;;27.60;11.50;;;;;;4923883;28;20038;-91
2021/04/13 12:05:32;;;;;;;0.20;0.20;;;27.50;11.30;;;;;;4910980;28;20478;-96
2021/04/13 12:08:05;;;;;;;0.43;0.43;;;27.30;11.30;;;;;;4913534;28;20053;-94
2021/04/13 12:10:34;;;;;;;3.20;0.57;;;27.20;11.40;;;;;;4894107;28;20042;-92
2021/04/13 12:13:05;;;;;;;0.10;0.10;;;27.10;11.40;;;;;;4940318;28;20039;-93
2021/04/13 12:15:32;;;;;;;0.20;0.20;;;27.00;11.40;;;;;;4908560;28;20014;-92
2021/04/13 12:18:01;;;;;;;0.00;0.00;;;26.90;11.50;;;;;;4914402;28;20046;-91
2021/04/13 12:20:43;;;;;;;1.20;0.85;;;26.90;11.50;;;;;;4925788;28;20397;-93
2021/04/13 12:23:12;;;;;;;0.00;0.00;;;26.90;11.50;;;;;;4918940;28;20051;-91
2021/04/13 12:25:54;;;;;;;0.00;0.00;;;26.90;11.50;;;;;;4919412;28;20050;-94
2021/04/13 12:28:30;;;;;;;0.10;0.10;;;26.90;11.50;;;;;;4918946;29;20042;-92
2021/04/13 12:31:05;;;;;;;0.00;0.00;;;26.80;11.60;;;;;;4917545;29;20556;-92
2021/04/13 12:33:33;;;;;;;0.15;0.15;;;26.90;12.50;;;;;;4913574;29;20038;-92
2021/04/13 12:36:07;;;;;;;0.10;0.10;;;26.80;11.50;;;;;;4930029;29;20541;-90
2021/04/13 12:38:45;;;;;;;0.10;0.10;;;26.80;11.70;;;;;;4904215;29;20038;-93
2021/04/13 12:41:17;;;;;;;0.40;0.40;;;26.80;11.90;;;;;;4928713;29;20026;-93
2021/04/13 12:44:28;;;;;;;0.47;0.30;;;26.70;11.90;;;;;;4915672;29;20050;-92
2021/04/13 12:46:59;;;;;;;0.10;0.10;;;26.70;11.90;;;;;;4915823;29;20568;-89
2021/04/13 12:49:35;;;;;;;0.15;0.15;;;26.70;11.90;;;;;;4927769;29;20061;-91
2021/04/13 12:52:15;;;;;;;0.13;0.13;;;26.70;12.00;;;;;;4909344;29;20069;-91
2021/04/13 12:54:45;;;;;;;0.38;0.30;;;26.60;12.00;;;;;;4901984;28;20039;-94
2021/04/13 12:57:22;;;;;;;0.10;0.10;;;26.70;12.00;;;;;;4984467;23;20065;-95
2021/04/13 12:59:51;;;;;;;0.22;0.22;;;26.60;12.00;;;;;;4959616;23;20064;-93
2021/04/13 13:02:34;;;;;;;1.00;0.38;;;26.70;12.10;;;;;;4920693;28;20046;-94
2021/04/13 13:05:27;;;;;;;0.00;0.00;;;26.70;12.00;;;;;;4970635;28;20034;-95
2021/04/13 13:10:52;;;;;;;0.40;0.40;;;26.60;11.80;;;;;;5024607;23;20145;-93
2021/04/13 13:13:29;;;;;;;0.10;0.10;;;26.60;11.70;;;;;;4959963;23;20039;-94
2021/04/13 13:16:15;;;;;;;0.00;0.00;;;26.60;11.50;;;;;;4943785;28;20043;-95
2021/04/13 13:22:15;;;;;;;0.28;0.28;;;26.50;11.60;;;;;;5292133;23;20089;-96
2021/04/13 13:25:10;;;;;;;2.53;0.75;;;26.50;11.60;;;;;;5003320;23;20105;-95
2021/04/13 13:27:38;;;;;;;;;;;26.40;11.60;;;;;;4942649;23;21142;-93
2021/04/13 13:33:07;;;;;;;0.00;0.00;;;26.40;11.60;;;;;;5168117;23;20038;-95
2021/04/13 13:38:18;;;;;;;0.10;0.10;;;26.40;11.70;;;;;;5034606;23;20046;-95
2021/04/13 13:43:56;;;;;;;0.10;0.10;;;26.30;11.80;;;;;;5083941;23;20129;-94
2021/04/13 13:46:34;;;;;;;0.03;0.03;;;26.30;12.00;;;;;;4908884;28;20065;-93
2021/04/13 13:49:45;;;;;;;0.45;0.45;;;26.20;12.00;;;;;;4930420;28;20057;-96
2021/04/13 13:52:38;;;;;;;0.10;0.10;;;26.20;12.20;;;;;;4936990;28;20030;-96
2021/04/13 13:55:17;;;;;;;0.20;0.20;;;26.20;12.30;;;;;;4952958;28;20073;-96
2021/04/13 13:58:23;;;;;;;0.30;0.30;;;26.20;12.40;;;;;;4963637;28;20035;-95
2021/04/13 14:01:24;;;;;;;0.00;0.00;;;26.20;12.40;;;;;;4933632;28;20049;-95
2021/04/13 14:03:51;;;;;;;0.28;0.28;;;26.20;12.40;;;;;;4929949;28;20030;-93
2021/04/13 14:06:21;;;;;;;0.00;0.00;;;26.10;12.40;;;;;;4921597;28;20093;-91
2021/04/13 14:09:04;;;;;;;0.30;0.30;;;26.10;12.40;;;;;;4920790;28;20041;-91
2021/04/13 14:11:34;;;;;;;0.10;0.10;;;26.00;12.50;;;;;;4919211;28;20105;-92
2021/04/13 14:14:11;;;;;;;0.20;0.20;;;26.00;12.60;;;;;;4904737;28;20046;-93
2021/04/13 14:16:42;;;;;;;0.00;0.00;;;26.00;12.60;;;;;;4918604;28;20043;-92
2021/04/13 14:19:33;;;;;;;0.10;0.10;;;26.00;12.70;;;;;;4919401;28;20042;-89
2021/04/13 14:22:02;;;;;;;0.10;0.10;;;25.90;12.70;;;;;;4933037;28;20054;-89
2021/04/13 14:24:39;;;;;;;9.73;0.75;;;25.90;12.40;;;;;;4935614;28;20035;-93
2021/04/13 14:27:25;;;;;;;0.10;0.10;;;25.80;12.40;;;;;;4940517;28;20035;-89
2021/04/13 14:29:54;;;;;;;0.20;0.20;;;25.80;12.50;;;;;;4932496;28;20049;-91
2021/04/13 14:32:22;;;;;;;0.08;0.08;;;25.80;12.60;;;;;;4949762;28;20039;-91
2021/04/13 14:34:48;;;;;;;0.10;0.10;;;25.70;12.60;;;;;;4932654;28;20070;-90
2021/04/13 14:37:14;;;;;;;;;;;25.70;12.70;;;;;;4917568;29;20102;-92
2021/04/13 14:39:50;;;;;;;0.22;0.22;;;25.60;12.80;;;;;;4947118;28;19926;-92
2021/04/13 14:42:24;;;;;;;0.00;0.00;;;25.60;12.80;;;;;;4946762;28;20062;-93
2021/04/13 14:44:54;;;;;;;0.00;0.00;;;25.50;12.80;;;;;;4908155;28;20055;-94
2021/04/13 14:47:29;;;;;;;0.00;0.00;;;25.50;12.90;;;;;;4919774;28;20046;-95
2021/04/13 14:49:59;;;;;;;0.20;0.20;;;25.40;13.00;;;;;;4933857;28;20076;-90
2021/04/13 14:52:26;;;;;;;0.75;0.75;;;25.40;13.10;;;;;;4916894;28;20035;-91
2021/04/13 14:54:54;;;;;;;0.10;0.10;;;25.30;13.10;;;;;;4949719;28;20042;-91
2021/04/13 14:57:21;;;;;;;0.10;0.10;;;25.20;13.10;;;;;;4900666;28;20030;-93
2021/04/13 14:59:53;;;;;;;0.10;0.10;;;25.20;13.10;;;;;;4929856;28;20027;-93
2021/04/13 15:02:26;;;;;;;0.52;0.52;;;25.20;13.30;;;;;;4962616;28;20119;-92
2021/04/13 15:05:00;;;;;;;0.10;0.10;;;25.10;13.40;;;;;;4909075;28;20569;-92